Chiniot, Pakistan
Current Conditions -  °F | °C
As of 11:25 AM on Wednesday 28 Jan 2015 (Local Time) from OPLA Reporting Station
Haze Haze  
Wind Chill: 57°   Ceiling: Unl
Heat Index: 57°   Visibility: 3mi
Dew Point: 37°   Wind: 7mph
Humidity: 48%   Direction: 320°NW
Pressure: 30.12"   Gusts: NA
Location:  31.72°N, 72.98°E
Report Text: OPLA 280625Z 32006KT 5000 HZ NSC 14/03 Q1020
Loading
Personal Weather Stations






























Interactive Weather Map New forecast layout! Learn more

10-Day Weather Forecast

Advertisements
Track Severe Weather on mobile